sensor_id;sensor_type;location;lat;lon;timestamp;temperature;humidity
33988;DHT22;37428;53.580;-1.666;2023-11-19T00:02:46;10.40;96.90
33988;DHT22;37428;53.580;-1.666;2023-11-19T00:05:49;10.40;97.00
33988;DHT22;37428;53.580;-1.666;2023-11-19T00:08:51;10.40;96.90
33988;DHT22;37428;53.580;-1.666;2023-11-19T00:11:54;10.40;96.90
33988;DHT22;37428;53.580;-1.666;2023-11-19T00:14:57;10.40;96.40
33988;DHT22;37428;53.580;-1.666;2023-11-19T00:17:59;10.50;96.20
33988;DHT22;37428;53.580;-1.666;2023-11-19T00:21:05;10.50;95.90
33988;DHT22;37428;53.580;-1.666;2023-11-19T00:24:09;10.50;95.60
33988;DHT22;37428;53.580;-1.666;2023-11-19T00:27:14;10.50;96.00
33988;DHT22;37428;53.580;-1.666;2023-11-19T00:30:16;10.50;95.70
33988;DHT22;37428;53.580;-1.666;2023-11-19T00:33:18;10.50;95.80
33988;DHT22;37428;53.580;-1.666;2023-11-19T00:36:20;10.40;96.00
33988;DHT22;37428;53.580;-1.666;2023-11-19T00:39:24;10.40;95.90
33988;DHT22;37428;53.580;-1.666;2023-11-19T00:42:28;10.40;95.80
33988;DHT22;37428;53.580;-1.666;2023-11-19T00:45:30;10.40;95.80
33988;DHT22;37428;53.580;-1.666;2023-11-19T00:48:33;10.40;95.80
33988;DHT22;37428;53.580;-1.666;2023-11-19T00:51:35;10.40;95.70
33988;DHT22;37428;53.580;-1.666;2023-11-19T00:54:38;10.40;95.60
33988;DHT22;37428;53.580;-1.666;2023-11-19T00:57:41;10.30;95.80
33988;DHT22;37428;53.580;-1.666;2023-11-19T01:00:43;10.30;95.90
33988;DHT22;37428;53.580;-1.666;2023-11-19T01:03:45;10.40;95.80
33988;DHT22;37428;53.580;-1.666;2023-11-19T01:06:47;10.40;95.50
33988;DHT22;37428;53.580;-1.666;2023-11-19T01:09:49;10.40;95.70
33988;DHT22;37428;53.580;-1.666;2023-11-19T01:12:53;10.40;95.30
33988;DHT22;37428;53.580;-1.666;2023-11-19T01:15:55;10.40;95.00
33988;DHT22;37428;53.580;-1.666;2023-11-19T01:18:58;10.40;94.80
33988;DHT22;37428;53.580;-1.666;2023-11-19T01:22:04;10.40;93.80
33988;DHT22;37428;53.580;-1.666;2023-11-19T01:25:07;10.30;94.30
33988;DHT22;37428;53.580;-1.666;2023-11-19T01:28:11;10.30;94.40
33988;DHT22;37428;53.580;-1.666;2023-11-19T01:31:15;10.30;94.30
33988;DHT22;37428;53.580;-1.666;2023-11-19T01:34:17;10.30;94.60
33988;DHT22;37428;53.580;-1.666;2023-11-19T01:37:19;10.30;95.00
33988;DHT22;37428;53.580;-1.666;2023-11-19T01:40:22;10.30;95.70
33988;DHT22;37428;53.580;-1.666;2023-11-19T01:43:35;10.30;96.30
33988;DHT22;37428;53.580;-1.666;2023-11-19T01:46:38;10.30;96.80
33988;DHT22;37428;53.580;-1.666;2023-11-19T01:49:42;10.30;96.80
33988;DHT22;37428;53.580;-1.666;2023-11-19T01:52:44;10.30;96.60
33988;DHT22;37428;53.580;-1.666;2023-11-19T01:55:46;10.30;97.00
33988;DHT22;37428;53.580;-1.666;2023-11-19T01:58:50;10.30;97.50
33988;DHT22;37428;53.580;-1.666;2023-11-19T02:01:53;10.30;98.10
33988;DHT22;37428;53.580;-1.666;2023-11-19T02:04:56;10.30;98.10
33988;DHT22;37428;53.580;-1.666;2023-11-19T02:07:59;10.20;98.40
33988;DHT22;37428;53.580;-1.666;2023-11-19T02:11:01;10.20;98.40
33988;DHT22;37428;53.580;-1.666;2023-11-19T02:14:05;10.20;98.40
33988;DHT22;37428;53.580;-1.666;2023-11-19T02:17:07;10.20;98.70
33988;DHT22;37428;53.580;-1.666;2023-11-19T02:20:26;10.20;99.30
33988;DHT22;37428;53.580;-1.666;2023-11-19T02:23:29;10.20;99.10
33988;DHT22;37428;53.580;-1.666;2023-11-19T02:26:41;10.20;99.40
33988;DHT22;37428;53.580;-1.666;2023-11-19T02:29:46;10.20;99.10
33988;DHT22;37428;53.580;-1.666;2023-11-19T02:32:49;10.20;99.20
33988;DHT22;37428;53.580;-1.666;2023-11-19T02:35:52;10.20;99.30
33988;DHT22;37428;53.580;-1.666;2023-11-19T02:38:54;10.20;99.20
33988;DHT22;37428;53.580;-1.666;2023-11-19T02:41:56;10.20;99.00
33988;DHT22;37428;53.580;-1.666;2023-11-19T02:45:00;10.20;99.30
33988;DHT22;37428;53.580;-1.666;2023-11-19T02:48:02;10.20;99.20
33988;DHT22;37428;53.580;-1.666;2023-11-19T02:51:07;10.20;99.00
33988;DHT22;37428;53.580;-1.666;2023-11-19T02:54:10;10.20;98.80
33988;DHT22;37428;53.580;-1.666;2023-11-19T02:57:12;10.20;98.40
33988;DHT22;37428;53.580;-1.666;2023-11-19T03:00:17;10.20;98.10
33988;DHT22;37428;53.580;-1.666;2023-11-19T03:03:19;10.20;98.30
33988;DHT22;37428;53.580;-1.666;2023-11-19T03:06:23;10.20;98.00
33988;DHT22;37428;53.580;-1.666;2023-11-19T03:09:25;10.20;98.20
33988;DHT22;37428;53.580;-1.666;2023-11-19T03:12:30;10.10;98.20
33988;DHT22;37428;53.580;-1.666;2023-11-19T03:15:33;10.10;98.20
33988;DHT22;37428;53.580;-1.666;2023-11-19T03:18:35;10.10;97.90
33988;DHT22;37428;53.580;-1.666;2023-11-19T03:21:37;10.10;98.10
33988;DHT22;37428;53.580;-1.666;2023-11-19T03:24:40;10.10;98.20
33988;DHT22;37428;53.580;-1.666;2023-11-19T03:27:42;10.10;97.90
33988;DHT22;37428;53.580;-1.666;2023-11-19T03:30:45;10.10;98.20
33988;DHT22;37428;53.580;-1.666;2023-11-19T03:33:47;10.10;98.20
33988;DHT22;37428;53.580;-1.666;2023-11-19T03:36:50;10.20;98.10
33988;DHT22;37428;53.580;-1.666;2023-11-19T03:39:53;10.20;98.10
33988;DHT22;37428;53.580;-1.666;2023-11-19T03:43:00;10.20;98.30
33988;DHT22;37428;53.580;-1.666;2023-11-19T03:46:04;10.20;98.70
33988;DHT22;37428;53.580;-1.666;2023-11-19T03:49:06;10.20;99.40
33988;DHT22;37428;53.580;-1.666;2023-11-19T03:52:09;10.10;99.90
33988;DHT22;37428;53.580;-1.666;2023-11-19T03:55:11;10.10;99.90
33988;DHT22;37428;53.580;-1.666;2023-11-19T03:58:13;10.10;99.70
33988;DHT22;37428;53.580;-1.666;2023-11-19T04:01:17;10.10;99.90
33988;DHT22;37428;53.580;-1.666;2023-11-19T04:04:19;10.10;99.60
33988;DHT22;37428;53.580;-1.666;2023-11-19T04:07:21;10.10;99.20
33988;DHT22;37428;53.580;-1.666;2023-11-19T04:10:23;10.10;98.60
33988;DHT22;37428;53.580;-1.666;2023-11-19T04:13:25;10.10;98.40
33988;DHT22;37428;53.580;-1.666;2023-11-19T04:16:29;10.10;98.70
33988;DHT22;37428;53.580;-1.666;2023-11-19T04:19:31;10.10;98.70
33988;DHT22;37428;53.580;-1.666;2023-11-19T04:22:33;10.10;98.80
33988;DHT22;37428;53.580;-1.666;2023-11-19T04:25:36;10.10;98.70
33988;DHT22;37428;53.580;-1.666;2023-11-19T04:28:39;10.00;98.80
33988;DHT22;37428;53.580;-1.666;2023-11-19T04:31:43;10.00;98.70
33988;DHT22;37428;53.580;-1.666;2023-11-19T04:34:46;10.00;98.90
33988;DHT22;37428;53.580;-1.666;2023-11-19T04:37:48;10.00;99.00
33988;DHT22;37428;53.580;-1.666;2023-11-19T04:40:51;10.00;99.40
33988;DHT22;37428;53.580;-1.666;2023-11-19T04:43:53;10.00;99.40
33988;DHT22;37428;53.580;-1.666;2023-11-19T04:46:57;10.00;98.90
33988;DHT22;37428;53.580;-1.666;2023-11-19T04:49:59;10.00;98.90
33988;DHT22;37428;53.580;-1.666;2023-11-19T04:53:01;10.00;98.70
33988;DHT22;37428;53.580;-1.666;2023-11-19T04:56:08;10.00;98.00
33988;DHT22;37428;53.580;-1.666;2023-11-19T04:59:10;10.00;97.80
33988;DHT22;37428;53.580;-1.666;2023-11-19T05:02:14;10.00;97.90
33988;DHT22;37428;53.580;-1.666;2023-11-19T05:05:17;10.00;97.80
33988;DHT22;37428;53.580;-1.666;2023-11-19T05:08:19;10.10;97.30
33988;DHT22;37428;53.580;-1.666;2023-11-19T05:11:21;10.10;97.20
33988;DHT22;37428;53.580;-1.666;2023-11-19T05:14:23;10.10;97.60
33988;DHT22;37428;53.580;-1.666;2023-11-19T05:17:27;10.00;97.80
33988;DHT22;37428;53.580;-1.666;2023-11-19T05:20:29;10.00;97.80
33988;DHT22;37428;53.580;-1.666;2023-11-19T05:23:31;10.00;98.40
33988;DHT22;37428;53.580;-1.666;2023-11-19T05:26:34;9.90;98.50
33988;DHT22;37428;53.580;-1.666;2023-11-19T05:29:36;9.90;98.80
33988;DHT22;37428;53.580;-1.666;2023-11-19T05:32:41;9.90;98.80
33988;DHT22;37428;53.580;-1.666;2023-11-19T05:35:44;9.90;98.90
33988;DHT22;37428;53.580;-1.666;2023-11-19T05:38:46;9.90;98.80
33988;DHT22;37428;53.580;-1.666;2023-11-19T05:41:48;9.90;98.60
33988;DHT22;37428;53.580;-1.666;2023-11-19T05:44:50;9.90;98.40
33988;DHT22;37428;53.580;-1.666;2023-11-19T05:47:54;10.00;98.30
33988;DHT22;37428;53.580;-1.666;2023-11-19T05:50:56;10.00;98.00
33988;DHT22;37428;53.580;-1.666;2023-11-19T05:53:58;10.00;98.20
33988;DHT22;37428;53.580;-1.666;2023-11-19T05:57:00;10.00;98.60
33988;DHT22;37428;53.580;-1.666;2023-11-19T06:00:04;10.00;98.60
33988;DHT22;37428;53.580;-1.666;2023-11-19T06:03:10;10.00;98.80
33988;DHT22;37428;53.580;-1.666;2023-11-19T06:06:12;10.00;98.80
33988;DHT22;37428;53.580;-1.666;2023-11-19T06:09:14;10.00;99.10
33988;DHT22;37428;53.580;-1.666;2023-11-19T06:12:19;10.00;99.00
33988;DHT22;37428;53.580;-1.666;2023-11-19T06:15:21;9.90;99.00
33988;DHT22;37428;53.580;-1.666;2023-11-19T06:18:24;10.00;98.90
33988;DHT22;37428;53.580;-1.666;2023-11-19T06:21:27;10.00;99.00
33988;DHT22;37428;53.580;-1.666;2023-11-19T06:24:29;10.00;99.20
33988;DHT22;37428;53.580;-1.666;2023-11-19T06:27:31;9.90;99.50
33988;DHT22;37428;53.580;-1.666;2023-11-19T06:30:33;9.90;99.80
33988;DHT22;37428;53.580;-1.666;2023-11-19T06:33:38;9.90;99.90
33988;DHT22;37428;53.580;-1.666;2023-11-19T06:36:40;9.90;99.70
33988;DHT22;37428;53.580;-1.666;2023-11-19T06:39:44;9.90;99.90
33988;DHT22;37428;53.580;-1.666;2023-11-19T06:42:46;9.90;99.90
33988;DHT22;37428;53.580;-1.666;2023-11-19T06:45:48;9.90;99.90
33988;DHT22;37428;53.580;-1.666;2023-11-19T06:48:52;9.90;99.90
33988;DHT22;37428;53.580;-1.666;2023-11-19T06:51:54;9.80;99.90
33988;DHT22;37428;53.580;-1.666;2023-11-19T06:54:56;9.80;99.90
33988;DHT22;37428;53.580;-1.666;2023-11-19T06:58:00;9.80;99.90
33988;DHT22;37428;53.580;-1.666;2023-11-19T07:01:06;9.80;99.90
33988;DHT22;37428;53.580;-1.666;2023-11-19T07:04:10;9.80;99.90
33988;DHT22;37428;53.580;-1.666;2023-11-19T07:07:13;9.70;99.90
33988;DHT22;37428;53.580;-1.666;2023-11-19T07:10:15;9.70;99.90
33988;DHT22;37428;53.580;-1.666;2023-11-19T07:13:17;9.70;99.90
33988;DHT22;37428;53.580;-1.666;2023-11-19T07:16:20;9.80;99.90
33988;DHT22;37428;53.580;-1.666;2023-11-19T07:19:24;9.70;99.90
33988;DHT22;37428;53.580;-1.666;2023-11-19T07:22:26;9.70;99.90
33988;DHT22;37428;53.580;-1.666;2023-11-19T07:25:29;9.80;99.90
33988;DHT22;37428;53.580;-1.666;2023-11-19T07:28:32;9.80;99.90
33988;DHT22;37428;53.580;-1.666;2023-11-19T07:31:34;9.80;99.90
33988;DHT22;37428;53.580;-1.666;2023-11-19T07:34:37;9.80;99.90
33988;DHT22;37428;53.580;-1.666;2023-11-19T07:37:40;9.90;99.90
33988;DHT22;37428;53.580;-1.666;2023-11-19T07:40:42;9.90;99.90
33988;DHT22;37428;53.580;-1.666;2023-11-19T07:43:45;9.90;99.90
33988;DHT22;37428;53.580;-1.666;2023-11-19T07:46:47;9.90;99.90
33988;DHT22;37428;53.580;-1.666;2023-11-19T07:49:52;9.90;99.90
33988;DHT22;37428;53.580;-1.666;2023-11-19T07:52:54;9.80;99.90
33988;DHT22;37428;53.580;-1.666;2023-11-19T07:55:56;9.90;99.90
33988;DHT22;37428;53.580;-1.666;2023-11-19T07:59:00;9.90;99.90
33988;DHT22;37428;53.580;-1.666;2023-11-19T08:02:02;9.90;99.90
33988;DHT22;37428;53.580;-1.666;2023-11-19T08:05:07;10.00;99.90
33988;DHT22;37428;53.580;-1.666;2023-11-19T08:08:10;10.00;99.90
33988;DHT22;37428;53.580;-1.666;2023-11-19T08:11:12;10.00;99.90
33988;DHT22;37428;53.580;-1.666;2023-11-19T08:14:14;10.00;99.90
33988;DHT22;37428;53.580;-1.666;2023-11-19T08:17:16;10.00;99.90
33988;DHT22;37428;53.580;-1.666;2023-11-19T08:20:20;10.00;99.90
33988;DHT22;37428;53.580;-1.666;2023-11-19T08:23:22;10.00;99.90
33988;DHT22;37428;53.580;-1.666;2023-11-19T08:26:26;10.00;99.90
33988;DHT22;37428;53.580;-1.666;2023-11-19T08:29:28;10.00;99.90
33988;DHT22;37428;53.580;-1.666;2023-11-19T08:32:30;10.00;99.90
33988;DHT22;37428;53.580;-1.666;2023-11-19T08:35:34;10.10;99.90
33988;DHT22;37428;53.580;-1.666;2023-11-19T08:38:36;10.00;99.90
33988;DHT22;37428;53.580;-1.666;2023-11-19T08:41:38;10.10;99.90
33988;DHT22;37428;53.580;-1.666;2023-11-19T08:44:42;10.10;99.90
33988;DHT22;37428;53.580;-1.666;2023-11-19T08:47:44;10.10;99.90
33988;DHT22;37428;53.580;-1.666;2023-11-19T08:50:48;10.20;99.90
33988;DHT22;37428;53.580;-1.666;2023-11-19T08:53:50;10.20;99.90
33988;DHT22;37428;53.580;-1.666;2023-11-19T08:56:52;10.20;99.90
33988;DHT22;37428;53.580;-1.666;2023-11-19T08:59:55;10.20;99.90
33988;DHT22;37428;53.580;-1.666;2023-11-19T09:02:57;10.20;99.90
33988;DHT22;37428;53.580;-1.666;2023-11-19T09:06:01;10.20;99.90
33988;DHT22;37428;53.580;-1.666;2023-11-19T09:09:04;10.20;99.90
33988;DHT22;37428;53.580;-1.666;2023-11-19T09:12:06;10.20;99.90
33988;DHT22;37428;53.580;-1.666;2023-11-19T09:15:09;10.20;99.90
33988;DHT22;37428;53.580;-1.666;2023-11-19T09:18:12;10.30;99.90
33988;DHT22;37428;53.580;-1.666;2023-11-19T09:21:15;10.20;99.90
33988;DHT22;37428;53.580;-1.666;2023-11-19T09:24:18;10.20;99.90
33988;DHT22;37428;53.580;-1.666;2023-11-19T09:27:20;10.30;99.90
33988;DHT22;37428;53.580;-1.666;2023-11-19T09:30:22;10.30;99.90
33988;DHT22;37428;53.580;-1.666;2023-11-19T09:33:24;10.40;99.90
33988;DHT22;37428;53.580;-1.666;2023-11-19T09:36:28;10.50;99.90
33988;DHT22;37428;53.580;-1.666;2023-11-19T09:39:30;10.60;99.90
33988;DHT22;37428;53.580;-1.666;2023-11-19T09:42:40;10.70;99.90
33988;DHT22;37428;53.580;-1.666;2023-11-19T09:45:48;10.60;99.90
33988;DHT22;37428;53.580;-1.666;2023-11-19T09:48:53;10.70;99.90
33988;DHT22;37428;53.580;-1.666;2023-11-19T09:51:57;10.70;99.90
33988;DHT22;37428;53.580;-1.666;2023-11-19T09:55:00;10.70;99.90
33988;DHT22;37428;53.580;-1.666;2023-11-19T09:58:02;10.70;99.90
33988;DHT22;37428;53.580;-1.666;2023-11-19T10:01:05;10.60;99.90
33988;DHT22;37428;53.580;-1.666;2023-11-19T10:04:14;10.60;99.90
33988;DHT22;37428;53.580;-1.666;2023-11-19T10:07:18;10.50;99.90
33988;DHT22;37428;53.580;-1.666;2023-11-19T10:10:21;10.50;99.90
33988;DHT22;37428;53.580;-1.666;2023-11-19T10:13:25;10.60;99.90
33988;DHT22;37428;53.580;-1.666;2023-11-19T10:16:34;10.70;99.90
33988;DHT22;37428;53.580;-1.666;2023-11-19T10:19:37;10.90;99.90
33988;DHT22;37428;53.580;-1.666;2023-11-19T10:22:43;10.90;99.90
33988;DHT22;37428;53.580;-1.666;2023-11-19T10:25:46;11.00;99.90
33988;DHT22;37428;53.580;-1.666;2023-11-19T10:28:49;11.00;99.90
33988;DHT22;37428;53.580;-1.666;2023-11-19T10:31:56;10.90;99.90
33988;DHT22;37428;53.580;-1.666;2023-11-19T10:35:07;10.90;99.90
33988;DHT22;37428;53.580;-1.666;2023-11-19T10:38:15;10.90;99.90
33988;DHT22;37428;53.580;-1.666;2023-11-19T10:41:26;10.90;99.90
33988;DHT22;37428;53.580;-1.666;2023-11-19T10:44:31;11.00;99.90
33988;DHT22;37428;53.580;-1.666;2023-11-19T10:47:37;11.00;99.90
33988;DHT22;37428;53.580;-1.666;2023-11-19T10:50:41;11.00;99.90
33988;DHT22;37428;53.580;-1.666;2023-11-19T10:53:45;11.00;99.90
33988;DHT22;37428;53.580;-1.666;2023-11-19T10:56:54;11.00;99.90
33988;DHT22;37428;53.580;-1.666;2023-11-19T11:00:01;11.10;99.90
33988;DHT22;37428;53.580;-1.666;2023-11-19T11:03:11;11.30;99.90
33988;DHT22;37428;53.580;-1.666;2023-11-19T11:06:13;11.40;99.90
33988;DHT22;37428;53.580;-1.666;2023-11-19T11:09:17;11.40;99.90
33988;DHT22;37428;53.580;-1.666;2023-11-19T11:12:22;11.40;99.90
33988;DHT22;37428;53.580;-1.666;2023-11-19T11:15:27;11.30;99.90
33988;DHT22;37428;53.580;-1.666;2023-11-19T11:18:30;11.30;99.90
33988;DHT22;37428;53.580;-1.666;2023-11-19T11:21:33;11.30;99.90
33988;DHT22;37428;53.580;-1.666;2023-11-19T11:24:59;11.20;99.90
33988;DHT22;37428;53.580;-1.666;2023-11-19T11:28:16;11.10;99.90
33988;DHT22;37428;53.580;-1.666;2023-11-19T11:31:29;11.10;99.90
33988;DHT22;37428;53.580;-1.666;2023-11-19T11:34:44;11.10;99.90
33988;DHT22;37428;53.580;-1.666;2023-11-19T11:37:59;11.10;99.90
33988;DHT22;37428;53.580;-1.666;2023-11-19T11:41:20;11.10;99.90
33988;DHT22;37428;53.580;-1.666;2023-11-19T11:45:00;11.10;99.90
33988;DHT22;37428;53.580;-1.666;2023-11-19T11:48:16;11.10;99.90
33988;DHT22;37428;53.580;-1.666;2023-11-19T11:51:57;11.10;99.90
33988;DHT22;37428;53.580;-1.666;2023-11-19T11:55:04;11.20;99.90
33988;DHT22;37428;53.580;-1.666;2023-11-19T11:58:10;11.20;99.90
33988;DHT22;37428;53.580;-1.666;2023-11-19T12:01:15;11.30;99.90
33988;DHT22;37428;53.580;-1.666;2023-11-19T12:04:21;11.30;99.90
33988;DHT22;37428;53.580;-1.666;2023-11-19T12:07:24;11.30;99.90
33988;DHT22;37428;53.580;-1.666;2023-11-19T12:10:28;11.40;99.90
33988;DHT22;37428;53.580;-1.666;2023-11-19T12:13:54;11.40;99.90
33988;DHT22;37428;53.580;-1.666;2023-11-19T12:17:03;11.40;99.90
33988;DHT22;37428;53.580;-1.666;2023-11-19T12:20:26;11.50;99.90
33988;DHT22;37428;53.580;-1.666;2023-11-19T12:23:32;11.50;99.90
33988;DHT22;37428;53.580;-1.666;2023-11-19T12:26:35;11.60;99.90
33988;DHT22;37428;53.580;-1.666;2023-11-19T12:29:43;11.70;99.90
33988;DHT22;37428;53.580;-1.666;2023-11-19T12:32:46;11.70;99.90
33988;DHT22;37428;53.580;-1.666;2023-11-19T12:35:48;11.70;99.90
33988;DHT22;37428;53.580;-1.666;2023-11-19T12:38:50;11.70;99.90
33988;DHT22;37428;53.580;-1.666;2023-11-19T12:41:52;11.70;99.90
33988;DHT22;37428;53.580;-1.666;2023-11-19T12:44:57;11.70;99.90
33988;DHT22;37428;53.580;-1.666;2023-11-19T12:48:04;11.70;99.90
33988;DHT22;37428;53.580;-1.666;2023-11-19T12:51:07;11.70;99.90
33988;DHT22;37428;53.580;-1.666;2023-11-19T12:54:09;11.70;99.90
33988;DHT22;37428;53.580;-1.666;2023-11-19T12:57:11;11.70;99.90
33988;DHT22;37428;53.580;-1.666;2023-11-19T13:00:20;11.70;99.90
33988;DHT22;37428;53.580;-1.666;2023-11-19T13:03:29;11.70;99.90
33988;DHT22;37428;53.580;-1.666;2023-11-19T13:06:32;11.70;99.90
33988;DHT22;37428;53.580;-1.666;2023-11-19T13:09:34;11.70;99.90
33988;DHT22;37428;53.580;-1.666;2023-11-19T13:12:36;11.70;99.90
33988;DHT22;37428;53.580;-1.666;2023-11-19T13:15:40;11.70;99.90
33988;DHT22;37428;53.580;-1.666;2023-11-19T13:18:42;11.80;99.90
33988;DHT22;37428;53.580;-1.666;2023-11-19T13:21:44;11.80;99.90
33988;DHT22;37428;53.580;-1.666;2023-11-19T13:24:47;11.70;99.90
33988;DHT22;37428;53.580;-1.666;2023-11-19T13:27:50;11.70;99.90
33988;DHT22;37428;53.580;-1.666;2023-11-19T13:30:53;11.70;99.90
33988;DHT22;37428;53.580;-1.666;2023-11-19T13:33:55;11.70;99.90
33988;DHT22;37428;53.580;-1.666;2023-11-19T13:36:58;11.70;99.90
33988;DHT22;37428;53.580;-1.666;2023-11-19T13:40:01;11.70;99.90
33988;DHT22;37428;53.580;-1.666;2023-11-19T13:43:04;11.80;99.90
33988;DHT22;37428;53.580;-1.666;2023-11-19T13:46:07;11.90;99.90
33988;DHT22;37428;53.580;-1.666;2023-11-19T13:49:10;12.00;99.90
33988;DHT22;37428;53.580;-1.666;2023-11-19T13:52:12;12.10;99.90
33988;DHT22;37428;53.580;-1.666;2023-11-19T13:55:15;12.10;99.90
33988;DHT22;37428;53.580;-1.666;2023-11-19T13:58:17;12.10;99.90
33988;DHT22;37428;53.580;-1.666;2023-11-19T14:01:20;12.10;99.90
33988;DHT22;37428;53.580;-1.666;2023-11-19T14:04:22;12.00;99.90
33988;DHT22;37428;53.580;-1.666;2023-11-19T14:07:25;12.00;99.90
33988;DHT22;37428;53.580;-1.666;2023-11-19T14:10:27;12.00;99.90
33988;DHT22;37428;53.580;-1.666;2023-11-19T14:13:29;12.00;99.90
33988;DHT22;37428;53.580;-1.666;2023-11-19T14:16:33;12.00;99.90
33988;DHT22;37428;53.580;-1.666;2023-11-19T14:19:35;12.00;99.90
33988;DHT22;37428;53.580;-1.666;2023-11-19T14:22:37;12.00;99.90
33988;DHT22;37428;53.580;-1.666;2023-11-19T14:25:39;12.00;99.90
33988;DHT22;37428;53.580;-1.666;2023-11-19T14:28:41;12.00;99.90
33988;DHT22;37428;53.580;-1.666;2023-11-19T14:31:45;12.00;99.90
33988;DHT22;37428;53.580;-1.666;2023-11-19T14:34:47;12.00;99.90
33988;DHT22;37428;53.580;-1.666;2023-11-19T14:37:49;12.00;99.90
33988;DHT22;37428;53.580;-1.666;2023-11-19T14:40:51;11.90;99.90
33988;DHT22;37428;53.580;-1.666;2023-11-19T14:43:54;11.90;99.90
33988;DHT22;37428;53.580;-1.666;2023-11-19T14:46:57;11.90;99.90
33988;DHT22;37428;53.580;-1.666;2023-11-19T14:50:00;11.80;99.90
33988;DHT22;37428;53.580;-1.666;2023-11-19T14:53:02;11.80;99.90
33988;DHT22;37428;53.580;-1.666;2023-11-19T14:56:05;11.80;99.90
33988;DHT22;37428;53.580;-1.666;2023-11-19T14:59:13;11.80;99.90
33988;DHT22;37428;53.580;-1.666;2023-11-19T15:02:16;11.70;99.90
33988;DHT22;37428;53.580;-1.666;2023-11-19T15:05:19;11.70;99.90
33988;DHT22;37428;53.580;-1.666;2023-11-19T15:08:21;11.60;99.90
33988;DHT22;37428;53.580;-1.666;2023-11-19T15:11:23;11.60;99.90
33988;DHT22;37428;53.580;-1.666;2023-11-19T15:14:25;11.60;99.90
33988;DHT22;37428;53.580;-1.666;2023-11-19T15:17:30;11.60;99.90
33988;DHT22;37428;53.580;-1.666;2023-11-19T15:20:32;11.60;99.90
33988;DHT22;37428;53.580;-1.666;2023-11-19T15:23:34;11.60;99.90
33988;DHT22;37428;53.580;-1.666;2023-11-19T15:26:38;11.60;99.90
33988;DHT22;37428;53.580;-1.666;2023-11-19T15:29:40;11.50;99.90
33988;DHT22;37428;53.580;-1.666;2023-11-19T15:32:43;11.50;99.90
33988;DHT22;37428;53.580;-1.666;2023-11-19T15:35:45;11.50;99.90
33988;DHT22;37428;53.580;-1.666;2023-11-19T15:38:48;11.50;99.90
33988;DHT22;37428;53.580;-1.666;2023-11-19T15:41:50;11.50;99.90
33988;DHT22;37428;53.580;-1.666;2023-11-19T15:44:54;11.40;99.90
33988;DHT22;37428;53.580;-1.666;2023-11-19T15:47:57;11.40;99.90
33988;DHT22;37428;53.580;-1.666;2023-11-19T15:50:59;11.40;99.90
33988;DHT22;37428;53.580;-1.666;2023-11-19T15:54:03;11.40;99.90
33988;DHT22;37428;53.580;-1.666;2023-11-19T15:57:06;11.40;99.90
33988;DHT22;37428;53.580;-1.666;2023-11-19T16:00:09;11.30;99.90
33988;DHT22;37428;53.580;-1.666;2023-11-19T16:03:13;11.30;99.90
33988;DHT22;37428;53.580;-1.666;2023-11-19T16:06:15;11.30;99.90
33988;DHT22;37428;53.580;-1.666;2023-11-19T16:09:18;11.30;99.90
33988;DHT22;37428;53.580;-1.666;2023-11-19T16:12:22;11.30;99.90
33988;DHT22;37428;53.580;-1.666;2023-11-19T16:15:25;11.30;99.90
33988;DHT22;37428;53.580;-1.666;2023-11-19T16:18:29;11.20;99.90
33988;DHT22;37428;53.580;-1.666;2023-11-19T16:21:31;11.20;99.90
33988;DHT22;37428;53.580;-1.666;2023-11-19T16:24:35;11.20;99.90
33988;DHT22;37428;53.580;-1.666;2023-11-19T16:27:37;11.20;99.90
33988;DHT22;37428;53.580;-1.666;2023-11-19T16:30:40;11.20;99.90
33988;DHT22;37428;53.580;-1.666;2023-11-19T16:33:44;11.20;99.90
33988;DHT22;37428;53.580;-1.666;2023-11-19T16:36:46;11.10;99.90
33988;DHT22;37428;53.580;-1.666;2023-11-19T16:39:48;11.10;99.90
33988;DHT22;37428;53.580;-1.666;2023-11-19T16:42:50;11.10;99.90
33988;DHT22;37428;53.580;-1.666;2023-11-19T16:45:52;11.10;99.90
33988;DHT22;37428;53.580;-1.666;2023-11-19T16:48:56;11.10;99.90
33988;DHT22;37428;53.580;-1.666;2023-11-19T16:51:58;11.10;99.90
33988;DHT22;37428;53.580;-1.666;2023-11-19T16:55:00;11.20;99.90
33988;DHT22;37428;53.580;-1.666;2023-11-19T16:58:05;11.10;99.90
33988;DHT22;37428;53.580;-1.666;2023-11-19T17:01:07;11.10;99.90
33988;DHT22;37428;53.580;-1.666;2023-11-19T17:04:12;11.10;99.90
33988;DHT22;37428;53.580;-1.666;2023-11-19T17:07:16;11.10;99.90
33988;DHT22;37428;53.580;-1.666;2023-11-19T17:10:18;11.10;99.90
33988;DHT22;37428;53.580;-1.666;2023-11-19T17:13:21;11.10;99.90
33988;DHT22;37428;53.580;-1.666;2023-11-19T17:16:23;11.10;99.90
33988;DHT22;37428;53.580;-1.666;2023-11-19T17:19:26;11.00;99.90
33988;DHT22;37428;53.580;-1.666;2023-11-19T17:22:29;11.00;99.90
33988;DHT22;37428;53.580;-1.666;2023-11-19T17:25:31;11.00;99.90
33988;DHT22;37428;53.580;-1.666;2023-11-19T17:28:33;11.00;99.90
33988;DHT22;37428;53.580;-1.666;2023-11-19T17:31:36;11.00;99.90
33988;DHT22;37428;53.580;-1.666;2023-11-19T17:34:40;11.00;99.90
33988;DHT22;37428;53.580;-1.666;2023-11-19T17:37:42;11.00;99.90
33988;DHT22;37428;53.580;-1.666;2023-11-19T17:40:44;11.00;99.90
33988;DHT22;37428;53.580;-1.666;2023-11-19T17:43:47;11.00;99.90
33988;DHT22;37428;53.580;-1.666;2023-11-19T17:46:50;11.00;99.90
33988;DHT22;37428;53.580;-1.666;2023-11-19T17:49:53;11.00;99.90
33988;DHT22;37428;53.580;-1.666;2023-11-19T17:52:56;11.00;99.90
33988;DHT22;37428;53.580;-1.666;2023-11-19T17:55:58;11.00;99.90
33988;DHT22;37428;53.580;-1.666;2023-11-19T17:59:01;10.90;99.90
33988;DHT22;37428;53.580;-1.666;2023-11-19T18:02:04;10.90;99.90
33988;DHT22;37428;53.580;-1.666;2023-11-19T18:05:08;10.90;99.90
33988;DHT22;37428;53.580;-1.666;2023-11-19T18:08:10;10.90;99.90
33988;DHT22;37428;53.580;-1.666;2023-11-19T18:11:13;10.90;99.90
33988;DHT22;37428;53.580;-1.666;2023-11-19T18:14:15;10.90;99.90
33988;DHT22;37428;53.580;-1.666;2023-11-19T18:17:17;10.90;99.90
33988;DHT22;37428;53.580;-1.666;2023-11-19T18:20:21;10.80;99.90
33988;DHT22;37428;53.580;-1.666;2023-11-19T18:23:23;10.80;99.90
33988;DHT22;37428;53.580;-1.666;2023-11-19T18:26:25;10.80;99.90
33988;DHT22;37428;53.580;-1.666;2023-11-19T18:29:27;10.80;99.90
33988;DHT22;37428;53.580;-1.666;2023-11-19T18:32:29;10.70;99.90
33988;DHT22;37428;53.580;-1.666;2023-11-19T18:35:33;10.70;99.90
33988;DHT22;37428;53.580;-1.666;2023-11-19T18:38:35;10.70;99.90
33988;DHT22;37428;53.580;-1.666;2023-11-19T18:41:40;10.60;99.90
33988;DHT22;37428;53.580;-1.666;2023-11-19T18:44:42;10.60;99.90
33988;DHT22;37428;53.580;-1.666;2023-11-19T18:47:44;10.60;99.90
33988;DHT22;37428;53.580;-1.666;2023-11-19T18:50:48;10.60;99.90
33988;DHT22;37428;53.580;-1.666;2023-11-19T18:53:51;10.60;99.90
33988;DHT22;37428;53.580;-1.666;2023-11-19T18:56:53;10.60;99.90
33988;DHT22;37428;53.580;-1.666;2023-11-19T18:59:57;10.60;99.90
33988;DHT22;37428;53.580;-1.666;2023-11-19T19:02:59;10.60;99.90
33988;DHT22;37428;53.580;-1.666;2023-11-19T19:06:04;10.50;99.90